Time;durP1;ratioP1;P1;durP2;ratioP2;P2;SDS_P1;SDS_P2;PMS_P1;PMS_P2;Temp;Humidity;BMP_temperature;BMP_pressure;BME280_temperature;BME280_humidity;BME280_pressure;Samples;Min_cycle;Max_cycle;Signal;HPM_P1;HPM_P2
2021/12/08 00:01:08;;;;;;;33.13;14.55;;;;;;;-1.20;100.00;99500.47;5051861;28;20044;-65
2021/12/08 00:03:34;;;;;;;30.17;14.30;;;;;;;-1.20;100.00;99516.38;5051487;28;20056;-64
2021/12/08 00:06:00;;;;;;;33.80;14.55;;;;;;;-1.25;100.00;99519.25;5060686;28;20044;-65
2021/12/08 00:08:29;;;;;;;33.80;14.13;;;;;;;-1.31;100.00;99525.75;5071714;28;20512;-64
2021/12/08 00:13:34;;;;;;;34.95;14.90;;;;;;;-1.27;100.00;99526.44;5053776;28;20114;-64
2021/12/08 00:16:06;;;;;;;27.95;13.32;;;;;;;-1.34;100.00;99510.00;5036679;28;20135;-64
2021/12/08 00:18:34;;;;;;;33.63;13.50;;;;;;;-1.29;100.00;99528.31;5071637;28;20130;-64
2021/12/08 00:21:03;;;;;;;33.83;13.18;;;;;;;-1.27;100.00;99526.44;5071552;28;20127;-65
2021/12/08 00:23:29;;;;;;;34.20;13.32;;;;;;;-1.24;100.00;99526.31;5071147;28;20044;-64
2021/12/08 00:25:56;;;;;;;29.98;13.68;;;;;;;-1.19;100.00;99540.16;5049646;28;20067;-64
2021/12/08 00:28:22;;;;;;;32.05;13.70;;;;;;;-1.16;100.00;99544.47;5070884;28;20496;-63
2021/12/08 00:30:51;;;;;;;31.30;13.35;;;;;;;-1.24;100.00;99539.56;5071080;28;20052;-65
2021/12/08 00:33:18;;;;;;;32.03;14.32;;;;;;;-1.28;100.00;99536.22;5052623;28;20044;-64
2021/12/08 00:35:47;;;;;;;32.33;13.23;;;;;;;-1.22;100.00;99535.88;5067253;28;20381;-64
2021/12/08 00:38:14;;;;;;;29.98;13.20;;;;;;;-1.19;100.00;99536.66;5070803;28;20212;-64
2021/12/08 00:40:40;;;;;;;34.30;14.68;;;;;;;-1.33;100.00;99543.53;5069481;28;20051;-64
2021/12/08 00:43:06;;;;;;;31.50;13.27;;;;;;;-1.43;100.00;99536.97;5070826;28;20048;-64
2021/12/08 00:45:33;;;;;;;33.60;14.57;;;;;;;-1.43;100.00;99549.38;5069828;28;20044;-64
2021/12/08 00:48:00;;;;;;;26.42;12.07;;;;;;;-1.45;100.00;99538.88;5071248;28;20125;-64
2021/12/08 00:50:29;;;;;;;31.02;14.57;;;;;;;-1.42;100.00;99557.28;5070508;28;20054;-63
2021/12/08 00:52:57;;;;;;;28.23;12.90;;;;;;;-1.43;100.00;99555.53;5070799;28;20041;-65
2021/12/08 00:55:23;;;;;;;30.20;13.70;;;;;;;-1.42;100.00;99551.97;5055135;28;20049;-65
2021/12/08 00:57:49;;;;;;;28.73;13.32;;;;;;;-1.49;100.00;99554.06;5050762;28;20052;-65
2021/12/08 01:00:19;;;;;;;31.95;13.02;;;;;;;-1.43;100.00;99558.19;5032666;28;20037;-64
2021/12/08 01:02:45;;;;;;;30.13;12.20;;;;;;;-1.43;100.00;99562.63;5050555;28;20049;-66
2021/12/08 01:05:15;;;;;;;33.05;13.98;;;;;;;-1.56;100.00;99557.09;5049978;28;20055;-64
2021/12/08 01:07:41;;;;;;;29.52;12.32;;;;;;;-1.45;100.00;99570.69;5050671;28;20500;-64
2021/12/08 01:10:09;;;;;;;28.77;12.23;;;;;;;-1.46;100.00;99574.28;5050168;28;20051;-64
2021/12/08 01:12:35;;;;;;;21.90;8.88;;;;;;;-1.70;100.00;99540.09;5050088;28;20412;-65
2021/12/08 01:15:01;;;;;;;27.95;12.10;;;;;;;-1.41;100.00;99572.22;5039703;28;20044;-65
2021/12/08 01:17:27;;;;;;;28.23;13.88;;;;;;;-1.44;100.00;99577.69;5070460;28;20139;-65
2021/12/08 01:19:53;;;;;;;35.03;13.30;;;;;;;-1.48;100.00;99576.13;5070700;28;20075;-65
2021/12/08 01:22:19;;;;;;;26.08;12.25;;;;;;;-1.64;100.00;99564.59;5070572;28;20132;-64
2021/12/08 01:24:44;;;;;;;27.00;11.75;;;;;;;-1.55;100.00;99569.41;5051305;28;20070;-63
2021/12/08 01:27:10;;;;;;;28.55;12.48;;;;;;;-1.59;100.00;99570.50;5070506;28;20369;-65
2021/12/08 01:29:36;;;;;;;28.70;12.88;;;;;;;-1.61;100.00;99577.66;5070022;28;20083;-65
2021/12/08 01:32:02;;;;;;;26.02;11.98;;;;;;;-1.75;100.00;99558.03;5070068;28;20492;-64
2021/12/08 01:34:28;;;;;;;25.35;10.95;;;;;;;-1.76;100.00;99569.53;5068976;28;20036;-65
2021/12/08 01:36:53;;;;;;;24.50;11.32;;;;;;;-1.72;100.00;99567.59;5051692;28;20051;-65
2021/12/08 01:39:19;;;;;;;26.65;11.23;;;;;;;-2.00;100.00;99544.28;5070224;28;20048;-64
2021/12/08 01:41:47;;;;;;;26.10;12.48;;;;;;;-1.79;100.00;99577.66;5070306;28;20075;-64
2021/12/08 01:46:57;;;;;;;27.98;12.02;;;;;;;-1.76;100.00;99603.97;5070114;28;20049;-65
2021/12/08 01:49:23;;;;;;;25.27;11.52;;;;;;;-1.86;100.00;99591.28;5070083;28;20086;-63
2021/12/08 01:51:49;;;;;;;26.88;11.85;;;;;;;-1.95;98.98;99577.53;5069913;28;20072;-65
2021/12/08 01:54:15;;;;;;;27.70;12.48;;;;;;;-1.92;100.00;99587.13;5045777;28;20516;-65
2021/12/08 01:56:41;;;;;;;23.23;11.10;;;;;;;-2.16;99.88;99567.13;5048457;28;20045;-65
2021/12/08 01:59:09;;;;;;;27.35;11.52;;;;;;;-2.16;100.00;99564.47;5032105;28;20120;-65
2021/12/08 02:01:38;;;;;;;25.00;10.35;;;;;;;-2.15;99.89;99569.72;5050526;28;20049;-66
2021/12/08 02:04:05;;;;;;;24.38;11.18;;;;;;;-2.06;99.26;99594.88;5059664;28;20044;-65
2021/12/08 02:06:37;;;;;;;23.52;10.68;;;;;;;-2.10;99.34;99598.63;5070412;28;20048;-65
2021/12/08 02:09:05;;;;;;;23.88;10.57;;;;;;;-2.12;99.02;99600.47;5070464;28;20037;-64
2021/12/08 02:11:31;;;;;;;21.65;8.60;;;;;;;-2.17;99.19;99613.06;5070725;28;20044;-64
2021/12/08 02:14:00;;;;;;;24.65;11.57;;;;;;;-2.43;98.47;99576.28;5071148;28;20048;-70
2021/12/08 02:16:28;;;;;;;26.13;11.05;;;;;;;-2.27;99.23;99602.91;5071081;28;20377;-65
2021/12/08 02:18:54;;;;;;;28.10;12.35;;;;;;;-2.25;99.11;99616.09;5071130;28;20117;-64
2021/12/08 02:21:24;;;;;;;27.10;12.80;;;;;;;-2.27;97.96;99625.88;5070314;28;20111;-64
2021/12/08 02:23:51;;;;;;;27.40;12.25;;;;;;;-2.35;99.66;99609.50;5070293;28;20048;-66
2021/12/08 02:26:17;;;;;;;26.63;11.23;;;;;;;-2.27;99.05;99624.06;5069852;28;20045;-65
2021/12/08 02:28:44;;;;;;;28.65;13.05;;;;;;;-2.47;98.24;99608.28;5070029;28;20047;-66
2021/12/08 02:31:13;;;;;;;27.40;13.57;;;;;;;-2.44;97.73;99631.97;5051676;28;20044;-64
2021/12/08 02:49:58;;;;;;;28.70;12.13;;;;;;;-2.72;97.43;99646.41;5071981;28;20045;-67
2021/12/08 02:52:24;;;;;;;28.48;11.93;;;;;;;-2.70;97.01;99662.25;5074065;28;20048;-67
2021/12/08 02:54:51;;;;;;;33.80;12.05;;;;;;;-2.69;96.68;99661.31;5055450;28;20144;-67
2021/12/08 02:57:21;;;;;;;28.33;11.38;;;;;;;-2.74;96.25;99650.09;5072930;28;20424;-66
2021/12/08 02:59:47;;;;;;;31.17;13.65;;;;;;;-2.81;97.35;99660.06;5054668;28;20107;-66
2021/12/08 03:02:13;;;;;;;27.88;12.18;;;;;;;-2.88;97.00;99658.63;5056082;28;20064;-65
2021/12/08 03:04:39;;;;;;;27.65;12.02;;;;;;;-3.02;97.12;99650.41;5073719;28;20040;-66
2021/12/08 03:07:06;;;;;;;28.02;12.68;;;;;;;-3.06;97.34;99654.97;5072190;28;20044;-66
2021/12/08 03:09:33;;;;;;;31.02;12.50;;;;;;;-2.98;97.79;99667.88;5072737;28;20063;-66
2021/12/08 03:12:01;;;;;;;29.42;12.05;;;;;;;-3.09;97.48;99662.19;5054624;28;20059;-65
2021/12/08 03:14:30;;;;;;;29.35;13.23;;;;;;;-3.02;97.97;99671.56;5073522;28;20088;-66
2021/12/08 03:17:00;;;;;;;31.85;13.95;;;;;;;-3.08;97.44;99672.69;5054900;28;20053;-65
2021/12/08 03:19:26;;;;;;;26.42;11.80;;;;;;;-3.06;97.47;99670.00;5054943;28;20084;-65
2021/12/08 03:21:56;;;;;;;33.80;13.75;;;;;;;-3.11;98.28;99667.50;5074904;28;20048;-66
2021/12/08 03:26:55;;;;;;;30.00;13.80;;;;;;;-3.12;98.62;99670.25;5076310;28;20044;-64
2021/12/08 03:29:30;;;;;;;30.02;14.20;;;;;;;-3.18;98.13;99672.22;5075059;28;20119;-64
2021/12/08 03:32:05;;;;;;;30.02;12.05;;;;;;;-3.25;98.88;99681.34;5074463;28;20395;-67
2021/12/08 03:34:34;;;;;;;27.50;11.95;;;;;;;-3.38;99.31;99673.97;5073426;28;20048;-68
2021/12/08 03:37:01;;;;;;;30.92;12.55;;;;;;;-3.40;99.06;99661.69;5072989;28;20053;-66
2021/12/08 03:39:27;;;;;;;31.65;12.55;;;;;;;-3.25;98.87;99678.69;5072537;28;20076;-66
2021/12/08 03:41:53;;;;;;;31.10;13.25;;;;;;;-3.21;99.08;99682.94;5053931;28;20112;-65
2021/12/08 03:44:18;;;;;;;33.83;13.82;;;;;;;-3.15;99.34;99700.28;5054148;28;20086;-67
2021/12/08 03:46:44;;;;;;;33.50;13.52;;;;;;;-3.10;99.40;99694.84;5058443;28;20501;-66
2021/12/08 03:49:14;;;;;;;32.42;14.02;;;;;;;-3.17;99.06;99710.94;5052176;28;20049;-65
2021/12/08 03:51:41;;;;;;;37.08;14.48;;;;;;;-3.27;98.37;99693.75;5033675;28;20045;-67
2021/12/08 03:54:07;;;;;;;28.13;12.60;;;;;;;-3.19;99.26;99701.34;5051692;28;20488;-66
2021/12/08 03:56:33;;;;;;;34.45;14.48;;;;;;;-3.16;99.46;99680.06;5025553;28;20513;-67
2021/12/08 03:58:59;;;;;;;33.90;13.32;;;;;;;-3.33;99.28;99687.84;5051592;28;20048;-66
2021/12/08 04:01:25;;;;;;;32.05;13.07;;;;;;;-3.35;99.32;99695.84;5053588;28;20504;-61
2021/12/08 04:03:51;;;;;;;31.08;13.27;;;;;;;-3.42;98.81;99684.66;5036577;28;20043;-66
2021/12/08 04:06:37;;;;;;;35.30;16.17;;;;;;;-3.24;99.57;99714.78;5054830;28;20041;-65
2021/12/08 04:09:06;;;;;;;30.35;13.13;;;;;;;-3.20;100.00;99716.34;5047930;28;20051;-66
2021/12/08 04:11:32;;;;;;;34.88;13.68;;;;;;;-3.28;99.60;99713.19;5051844;28;20041;-65
2021/12/08 04:14:02;;;;;;;34.67;12.68;;;;;;;-3.25;99.66;99713.06;5052261;28;20500;-68
2021/12/08 04:16:32;;;;;;;32.53;15.00;;;;;;;-3.29;100.00;99716.75;5035686;28;20084;-65
2021/12/08 04:18:58;;;;;;;38.17;16.70;;;;;;;-3.39;99.49;99710.13;5040565;28;20076;-60
2021/12/08 04:21:25;;;;;;;35.03;16.20;;;;;;;-3.52;99.71;99714.16;5062720;28;20064;-64
2021/12/08 04:23:51;;;;;;;31.92;14.18;;;;;;;-3.42;100.00;99728.72;5050703;28;20202;-65
2021/12/08 04:26:27;;;;;;;40.22;19.88;;;;;;;-3.52;99.42;99730.00;5046013;28;20834;-63
2021/12/08 04:28:53;;;;;;;37.83;17.00;;;;;;;-3.61;100.00;99740.97;5033458;28;20076;-65
2021/12/08 04:31:29;;;;;;;33.17;14.60;;;;;;;-3.59;100.00;99739.09;5052224;28;20036;-65
2021/12/08 04:34:00;;;;;;;33.30;14.02;;;;;;;-3.52;99.28;99753.78;5050029;28;20041;-65
2021/12/08 04:36:30;;;;;;;33.47;14.27;;;;;;;-3.64;99.07;99729.59;5035756;28;20101;-65
2021/12/08 04:38:59;;;;;;;28.42;11.63;;;;;;;-3.63;99.80;99738.38;5053615;28;20132;-63
2021/12/08 04:41:34;;;;;;;31.00;12.32;;;;;;;-3.52;99.52;99745.88;5057959;28;20114;-68
2021/12/08 04:52:29;;;;;;;39.10;14.48;;;;;;;-3.57;99.44;99764.56;5010397;28;20094;-66
2021/12/08 05:03:49;;;;;;;37.63;15.05;;;;;;;-3.64;98.41;99771.84;5057397;28;20606;-63
2021/12/08 05:08:54;;;;;;;34.72;13.90;;;;;;;-3.71;98.33;99786.22;5043324;28;20040;-66
2021/12/08 05:11:25;;;;;;;36.13;13.68;;;;;;;-3.69;98.49;99781.75;5035922;28;20048;-67
2021/12/08 05:14:02;;;;;;;41.08;17.20;;;;;;;-3.93;98.52;99756.25;5048155;28;20143;-65
2021/12/08 05:16:29;;;;;;;30.00;12.57;;;;;;;-3.76;98.22;99774.97;5046326;28;20131;-65
2021/12/08 05:18:57;;;;;;;41.58;15.63;;;;;;;-3.86;96.85;99776.22;5030681;28;20123;-66
2021/12/08 05:21:34;;;;;;;35.75;15.70;;;;;;;-3.97;96.86;99770.50;5050668;28;20045;-65
2021/12/08 05:24:07;;;;;;;40.28;15.65;;;;;;;-3.85;96.60;99785.88;5055155;28;20041;-66
2021/12/08 05:26:39;;;;;;;37.45;16.02;;;;;;;-3.90;96.84;99782.56;5056359;28;20051;-62
2021/12/08 05:29:13;;;;;;;38.83;15.43;;;;;;;-3.91;95.79;99794.03;5050054;28;20052;-64
2021/12/08 05:31:39;;;;;;;39.50;14.65;;;;;;;-3.92;96.60;99810.78;5046571;28;20056;-66
2021/12/08 05:34:05;;;;;;;42.72;16.85;;;;;;;-3.99;96.46;99806.63;5038392;28;20123;-64
2021/12/08 05:36:31;;;;;;;41.65;16.45;;;;;;;-3.97;95.24;99812.75;5049918;28;20140;-63
2021/12/08 05:38:58;;;;;;;38.13;16.23;;;;;;;-4.08;95.30;99814.91;5032678;28;20057;-64
2021/12/08 05:41:31;;;;;;;37.63;15.18;;;;;;;-4.34;94.29;99803.50;5049509;28;20040;-64
2021/12/08 05:43:58;;;;;;;51.63;18.48;;;;;;;-4.36;93.72;99815.88;5049501;28;20142;-64
2021/12/08 05:46:26;;;;;;;36.55;14.65;;;;;;;-4.48;92.63;99826.88;5045921;28;20047;-65
2021/12/08 05:48:53;;;;;;;37.35;15.25;;;;;;;-4.51;91.93;99817.28;5053270;28;20071;-65
2021/12/08 05:51:27;;;;;;;35.25;13.43;;;;;;;-4.54;91.67;99816.50;5038822;28;20469;-63
2021/12/08 05:53:56;;;;;;;36.92;13.30;;;;;;;-4.51;92.00;99821.69;5050409;28;20059;-65
2021/12/08 05:56:22;;;;;;;37.42;13.48;;;;;;;-4.54;92.13;99816.50;5053760;28;20048;-64
2021/12/08 05:58:50;;;;;;;39.60;14.25;;;;;;;-4.60;92.21;99796.50;5030428;28;20051;-66
2021/12/08 06:01:31;;;;;;;35.65;13.80;;;;;;;-4.54;91.75;99820.00;5046701;28;20045;-66
2021/12/08 06:03:58;;;;;;;43.60;13.27;;;;;;;-4.54;92.55;99830.56;5045782;28;20056;-66
2021/12/08 06:06:24;;;;;;;39.55;13.98;;;;;;;-4.64;93.17;99801.03;5052119;28;20075;-67
2021/12/08 06:08:51;;;;;;;36.58;14.65;;;;;;;-4.62;93.39;99815.00;5032702;28;20511;-66
2021/12/08 06:11:17;;;;;;;37.80;13.57;;;;;;;-4.63;92.39;99812.44;5057479;28;20045;-66
2021/12/08 06:13:46;;;;;;;39.53;14.40;;;;;;;-4.59;93.13;99835.16;5055246;28;20040;-66
2021/12/08 06:16:14;;;;;;;35.33;13.57;;;;;;;-4.66;92.97;99838.91;5033435;28;20045;-65
2021/12/08 06:18:41;;;;;;;39.50;12.50;;;;;;;-4.53;92.87;99850.78;5053860;28;20048;-66
2021/12/08 06:21:11;;;;;;;42.33;16.10;;;;;;;-4.61;92.30;99847.50;5037425;28;20056;-65
2021/12/08 06:23:39;;;;;;;34.63;12.15;;;;;;;-4.80;92.70;99830.59;5053716;28;20777;-65
2021/12/08 06:26:06;;;;;;;40.33;13.30;;;;;;;-4.78;92.52;99861.28;5040987;28;20051;-65
2021/12/08 06:28:32;;;;;;;39.85;13.25;;;;;;;-4.66;93.12;99871.41;5037691;28;20052;-65
2021/12/08 06:30:58;;;;;;;35.78;13.95;;;;;;;-4.74;92.09;99867.31;5057298;28;20064;-65
2021/12/08 06:33:25;;;;;;;39.80;13.95;;;;;;;-4.76;91.80;99864.69;5059173;28;20098;-66
2021/12/08 06:35:54;;;;;;;41.65;14.60;;;;;;;-4.70;91.96;99876.84;5062660;28;20064;-65
2021/12/08 06:38:21;;;;;;;34.47;11.80;;;;;;;-4.81;91.57;99879.81;5058499;28;20044;-65
2021/12/08 06:41:01;;;;;;;34.45;13.43;;;;;;;-4.87;90.98;99882.66;5026439;28;20048;-65
2021/12/08 06:43:32;;;;;;;42.10;15.07;;;;;;;-4.93;91.45;99889.00;5037353;28;20048;-65
2021/12/08 06:45:59;;;;;;;33.17;13.27;;;;;;;-4.95;92.23;99888.16;5052989;28;20045;-65
2021/12/08 06:48:33;;;;;;;39.80;14.57;;;;;;;-4.99;92.00;99888.31;5035764;28;20087;-65
2021/12/08 06:51:04;;;;;;;30.92;12.32;;;;;;;-5.05;92.78;99885.88;5055938;28;20063;-65
2021/12/08 06:53:30;;;;;;;39.70;13.55;;;;;;;-4.94;92.49;99891.66;5073764;28;20055;-65
2021/12/08 06:56:11;;;;;;;38.50;13.70;;;;;;;-4.87;93.23;99924.81;5073028;28;20197;-64
2021/12/08 06:58:40;;;;;;;35.55;13.38;;;;;;;-5.13;92.45;99912.44;5054616;28;20098;-64
2021/12/08 07:01:28;;;;;;;37.88;14.43;;;;;;;-4.97;93.76;99918.09;5054504;28;20094;-65
2021/12/08 07:04:14;;;;;;;44.88;14.93;;;;;;;-5.07;93.12;99901.72;5003342;28;20053;-65
2021/12/08 07:06:59;;;;;;;43.38;15.23;;;;;;;-5.27;92.91;99878.59;5052617;28;20072;-65
2021/12/08 07:09:44;;;;;;;39.10;13.85;;;;;;;-5.04;93.63;99927.16;5034538;28;20078;-65
2021/12/08 07:12:15;;;;;;;43.53;13.35;;;;;;;-4.99;93.88;99933.13;5034937;28;20436;-65
2021/12/08 07:14:44;;;;;;;37.22;12.73;;;;;;;-5.14;93.56;99919.50;5052372;28;20436;-65
2021/12/08 07:17:14;;;;;;;37.55;15.10;;;;;;;-5.02;94.11;99930.59;5035088;28;20045;-65
2021/12/08 07:19:51;;;;;;;48.85;15.73;;;;;;;-5.17;94.72;99922.22;5052243;28;20441;-65
2021/12/08 07:22:27;;;;;;;43.50;14.77;;;;;;;-5.17;94.66;99934.53;5019312;28;20053;-65
2021/12/08 07:24:55;;;;;;;39.03;14.73;;;;;;;-5.26;94.70;99927.78;5053431;28;20439;-65
2021/12/08 07:27:26;;;;;;;42.17;15.93;;;;;;;-5.31;95.27;99924.41;5035492;28;20140;-66
2021/12/08 07:29:52;;;;;;;43.20;16.13;;;;;;;-5.20;95.00;99922.31;5035175;28;20052;-65
2021/12/08 07:32:25;;;;;;;37.72;13.88;;;;;;;-5.44;93.47;99880.91;5052850;28;20079;-65
2021/12/08 07:34:52;;;;;;;33.83;13.73;;;;;;;-5.12;93.78;99914.16;5034732;28;20048;-65
2021/12/08 07:37:21;;;;;;;40.80;15.07;;;;;;;-5.10;94.67;99917.63;5054619;28;20045;-64
2021/12/08 07:39:59;;;;;;;46.08;14.30;;;;;;;-5.42;94.26;99901.00;5039136;28;20063;-63
2021/12/08 07:42:33;;;;;;;36.28;14.52;;;;;;;-5.26;94.75;99932.19;5037305;28;20041;-69
2021/12/08 07:45:02;;;;;;;41.85;15.45;;;;;;;-5.27;94.70;99936.56;5036485;28;20052;-64
2021/12/08 07:47:30;;;;;;;36.35;13.80;;;;;;;-5.35;95.38;99920.13;5051401;28;20075;-66
2021/12/08 07:50:03;;;;;;;33.92;12.45;;;;;;;-5.36;95.31;99942.13;5027801;28;20127;-63
2021/12/08 07:52:36;;;;;;;35.90;11.75;;;;;;;-5.23;95.22;99943.50;5045192;28;20065;-65
2021/12/08 07:55:11;;;;;;;44.80;15.20;;;;;;;-5.43;94.35;99924.78;5053970;28;20193;-65
2021/12/08 07:57:40;;;;;;;38.05;13.05;;;;;;;-5.34;94.78;99950.84;5059257;28;20045;-66
2021/12/08 08:00:17;;;;;;;33.33;12.95;;;;;;;-5.31;94.09;99950.75;5033533;28;20037;-66
2021/12/08 08:02:43;;;;;;;39.13;14.55;;;;;;;-5.20;93.20;99953.94;5032900;28;20516;-65
2021/12/08 08:05:10;;;;;;;38.92;13.32;;;;;;;-5.16;93.14;99949.44;5057737;28;20041;-65
2021/12/08 08:07:36;;;;;;;31.88;12.00;;;;;;;-5.15;91.89;99959.09;5037921;28;20033;-65
2021/12/08 08:10:12;;;;;;;28.98;11.82;;;;;;;-5.22;91.91;99955.78;5034936;28;20044;-64
2021/12/08 08:12:38;;;;;;;36.13;12.57;;;;;;;-5.09;92.03;99951.84;5020558;28;20045;-64
2021/12/08 08:15:11;;;;;;;31.85;11.35;;;;;;;-5.09;91.54;99966.78;5068310;28;20049;-64
2021/12/08 08:17:41;;;;;;;32.97;11.23;;;;;;;-5.06;91.96;99960.56;5053699;28;20048;-61
2021/12/08 08:20:18;;;;;;;32.95;13.25;;;;;;;-5.17;91.59;99964.38;5054357;28;20045;-60
2021/12/08 08:22:44;;;;;;;34.60;13.38;;;;;;;-5.28;92.62;99958.56;5060766;28;20056;-61
2021/12/08 08:25:12;;;;;;;36.95;14.35;;;;;;;-5.23;91.85;99954.06;5062938;28;20546;-60
2021/12/08 08:27:38;;;;;;;33.60;11.40;;;;;;;-5.30;92.90;99941.97;5065507;28;20053;-62
2021/12/08 08:30:08;;;;;;;34.15;11.05;;;;;;;-5.11;91.50;99974.75;5051393;28;20083;-60
2021/12/08 08:32:39;;;;;;;32.97;12.52;;;;;;;-5.11;92.46;99968.63;5053992;28;20492;-61
2021/12/08 08:35:33;;;;;;;34.70;12.63;;;;;;;-5.11;93.02;99966.84;5038561;28;20059;-60
2021/12/08 08:38:03;;;;;;;34.15;12.10;;;;;;;-4.98;91.57;99972.59;5033941;28;20075;-61
2021/12/08 08:40:36;;;;;;;31.27;11.65;;;;;;;-5.01;91.98;99958.66;5058868;28;20144;-62
2021/12/08 08:43:03;;;;;;;37.53;12.55;;;;;;;-5.00;91.10;99956.00;5050443;28;20049;-62
2021/12/08 08:45:55;;;;;;;34.72;12.02;;;;;;;-5.14;91.79;99959.03;5051443;28;20048;-66
2021/12/08 08:48:53;;;;;;;35.88;13.25;;;;;;;-5.04;90.97;99948.22;5049330;28;20056;-62
2021/12/08 08:51:43;;;;;;;30.35;10.93;;;;;;;-4.94;91.36;99945.25;5051087;28;20084;-62
2021/12/08 08:54:15;;;;;;;30.85;12.13;;;;;;;-4.90;90.26;99961.81;5050738;28;20099;-63
2021/12/08 08:56:49;;;;;;;30.20;11.90;;;;;;;-5.02;89.43;99963.06;5033394;28;20484;-62
2021/12/08 08:59:22;;;;;;;29.48;11.23;;;;;;;-5.01;90.78;99958.66;5050142;28;20072;-61
2021/12/08 09:01:52;;;;;;;33.05;11.80;;;;;;;-4.88;89.28;99960.03;5032691;28;20056;-61
2021/12/08 09:04:49;;;;;;;32.03;11.07;;;;;;;-4.96;89.45;99967.31;5051231;28;20105;-68
2021/12/08 09:07:23;;;;;;;34.55;12.63;;;;;;;-4.91;90.33;99966.25;5050924;28;20156;-62
2021/12/08 09:09:52;;;;;;;32.30;12.20;;;;;;;-4.83;90.95;99960.72;5016433;28;20049;-63
2021/12/08 09:12:37;;;;;;;31.20;11.73;;;;;;;-4.76;89.94;99964.91;5032954;28;20056;-65
2021/12/08 09:15:11;;;;;;;36.42;12.13;;;;;;;-4.93;88.79;99948.75;5038985;28;20060;-61
2021/12/08 09:17:47;;;;;;;28.83;10.23;;;;;;;-4.67;88.72;99967.28;5033498;28;20085;-67
2021/12/08 09:20:20;;;;;;;32.83;10.32;;;;;;;-4.73;88.48;99940.22;5052434;28;20040;-65
2021/12/08 09:22:55;;;;;;;28.50;12.98;;;;;;;-4.88;89.60;99960.03;5049368;28;20041;-61
2021/12/08 09:25:32;;;;;;;28.83;11.80;;;;;;;-4.96;90.32;99952.34;5062720;28;20048;-66
2021/12/08 09:28:04;;;;;;;32.47;11.32;;;;;;;-4.97;90.36;99961.19;5049581;28;20535;-64
2021/12/08 09:30:38;;;;;;;31.90;11.00;;;;;;;-5.13;91.10;99944.94;5052866;28;20076;-61
2021/12/08 09:33:18;;;;;;;32.10;10.93;;;;;;;-5.27;91.09;99957.66;5065502;28;20518;-65
2021/12/08 09:35:53;;;;;;;30.60;11.43;;;;;;;-5.39;91.78;99947.47;5050351;28;20511;-62
2021/12/08 09:38:22;;;;;;;31.13;11.85;;;;;;;-5.35;92.85;99957.03;5053611;28;20463;-64
2021/12/08 09:41:01;;;;;;;34.38;10.98;;;;;;;-5.19;92.14;99960.94;5051109;28;20086;-61
2021/12/08 09:43:33;;;;;;;32.83;12.80;;;;;;;-5.44;91.94;99928.31;5045453;28;20135;-64
2021/12/08 09:46:08;;;;;;;31.10;10.45;;;;;;;-5.20;91.39;99959.19;5022537;28;20053;-62
2021/12/08 09:48:38;;;;;;;25.58;10.10;;;;;;;-5.32;93.08;99954.31;5050429;28;20124;-63
2021/12/08 09:51:03;;;;;;;35.08;12.30;;;;;;;-5.46;92.52;99922.22;5050922;28;20049;-63
2021/12/08 09:53:30;;;;;;;34.58;12.55;;;;;;;-5.52;93.78;99935.56;5052307;28;20090;-64
2021/12/08 09:55:56;;;;;;;35.30;13.63;;;;;;;-5.33;93.08;99960.50;5058901;28;20381;-67
2021/12/08 09:58:22;;;;;;;33.20;11.68;;;;;;;-5.37;93.62;99967.63;5012611;28;20048;-61
2021/12/08 10:00:52;;;;;;;34.85;11.35;;;;;;;-5.44;93.16;99962.56;5032866;28;20040;-64
2021/12/08 10:03:18;;;;;;;36.47;12.73;;;;;;;-5.39;93.20;99968.56;5037864;28;20044;-64
2021/12/08 10:05:44;;;;;;;32.17;11.73;;;;;;;-5.45;92.77;99964.31;5015546;28;20496;-63
2021/12/08 10:08:11;;;;;;;30.55;11.98;;;;;;;-5.42;92.70;99963.38;5018626;28;20045;-64
2021/12/08 10:10:39;;;;;;;36.65;12.00;;;;;;;-5.45;92.54;99947.66;5039354;28;20041;-64
2021/12/08 10:13:06;;;;;;;31.25;12.38;;;;;;;-5.49;91.41;99964.44;5029509;28;20078;-63
2021/12/08 10:15:32;;;;;;;28.77;12.20;;;;;;;-5.72;91.22;99949.28;5063596;28;20049;-63
2021/12/08 10:17:59;;;;;;;34.15;13.00;;;;;;;-5.65;92.25;99971.91;5024799;28;20091;-64
2021/12/08 10:20:32;;;;;;;33.10;14.30;;;;;;;-5.88;91.93;99969.91;5035505;28;20421;-64
2021/12/08 10:23:12;;;;;;;30.15;12.57;;;;;;;-5.95;92.48;99966.59;5070278;28;20052;-64
2021/12/08 10:25:43;;;;;;;27.55;11.60;;;;;;;-6.13;92.94;99960.06;5070116;28;20036;-63
2021/12/08 10:28:21;;;;;;;31.45;10.98;;;;;;;-6.10;92.15;99954.72;5038475;28;20045;-63
2021/12/08 10:30:54;;;;;;;30.70;10.82;;;;;;;-5.93;92.56;99971.81;5050151;28;20045;-63
2021/12/08 10:39:07;;;;;;;34.85;13.10;;;;;;;-6.20;92.03;99995.31;5047983;28;20116;-60
2021/12/08 10:41:43;;;;;;;24.38;7.47;;;;;;;-6.15;92.65;99997.81;5049931;28;20139;-63
2021/12/08 10:44:09;;;;;;;31.75;10.93;;;;;;;-6.27;92.57;99988.47;5015246;28;20234;-63
2021/12/08 10:46:38;;;;;;;29.95;10.27;;;;;;;-6.21;92.24;100004.13;5048049;28;20047;-63
2021/12/08 10:49:20;;;;;;;31.90;11.35;;;;;;;-6.43;91.72;99982.72;5031791;28;20045;-63
2021/12/08 10:54:34;;;;;;;35.40;12.90;;;;;;;-6.62;91.07;99966.53;5031794;28;20045;-63
2021/12/08 10:57:04;;;;;;;36.35;11.95;;;;;;;-6.36;91.41;100001.81;5044122;28;20102;-61
2021/12/08 11:00:18;;;;;;;32.08;12.15;;;;;;;-6.40;91.95;100013.31;5054985;28;20040;-61
2021/12/08 11:02:54;;;;;;;28.70;10.02;;;;;;;-6.41;90.94;100008.97;5042512;28;20326;-61
2021/12/08 11:05:25;;;;;;;29.48;11.25;;;;;;;-6.33;90.75;100014.91;5055184;28;20040;-63
2021/12/08 11:08:07;;;;;;;33.42;10.65;;;;;;;-6.44;90.74;100006.41;5051534;28;20493;-63
2021/12/08 11:10:39;;;;;;;31.10;10.95;;;;;;;-6.35;90.74;100029.88;5018556;28;20045;-63
2021/12/08 11:13:07;;;;;;;28.88;10.57;;;;;;;-6.55;90.96;99996.16;5018436;28;20060;-62
2021/12/08 11:15:34;;;;;;;32.75;11.88;;;;;;;-6.46;91.99;100018.75;5053045;28;20041;-62
2021/12/08 11:18:21;;;;;;;28.58;10.70;;;;;;;-6.47;91.14;100010.00;5034992;28;20052;-63
2021/12/08 11:20:49;;;;;;;36.20;12.77;;;;;;;-6.43;91.80;100013.44;5051957;28;20075;-61
2021/12/08 11:23:19;;;;;;;30.92;11.70;;;;;;;-6.35;91.45;100006.22;5018740;28;20057;-62
2021/12/08 11:25:47;;;;;;;30.05;11.43;;;;;;;-6.54;91.69;99997.91;5019258;28;20048;-61
2021/12/08 11:28:18;;;;;;;31.58;10.77;;;;;;;-6.39;92.29;99999.28;5051011;28;20059;-61
2021/12/08 11:30:44;;;;;;;;;;;;;;;-6.44;91.94;99993.25;5035272;28;20085;-62
2021/12/08 11:33:22;;;;;;;35.40;10.45;;;;;;;-6.52;92.57;99976.81;5002197;28;20315;-61
2021/12/08 11:36:09;;;;;;;32.03;11.20;;;;;;;-6.33;91.83;100007.03;5052739;28;20468;-63
2021/12/08 11:38:35;;;;;;;32.58;11.07;;;;;;;-6.46;91.59;99997.72;5052487;28;20095;-62
2021/12/08 11:41:01;;;;;;;31.50;11.45;;;;;;;-6.42;93.16;100016.00;5018224;28;20052;-63
2021/12/08 11:43:30;;;;;;;39.65;12.40;;;;;;;-6.72;92.99;99974.66;5035051;28;20045;-62
2021/12/08 11:46:16;;;;;;;31.58;11.10;;;;;;;-6.38;93.23;100019.44;5017997;28;20468;-62
2021/12/08 11:49:03;;;;;;;33.50;12.50;;;;;;;-6.61;92.88;99998.94;5034569;28;20056;-61
2021/12/08 11:51:52;;;;;;;25.77;10.52;;;;;;;-6.47;92.85;100022.25;5034526;28;20063;-62
2021/12/08 11:54:36;;;;;;;32.40;10.75;;;;;;;-6.62;92.68;100019.09;5017465;28;20053;-62
2021/12/08 11:57:23;;;;;;;28.67;10.40;;;;;;;-6.64;92.61;99994.59;5052149;28;20087;-62
2021/12/08 11:59:58;;;;;;;31.52;10.65;;;;;;;-6.61;93.01;100028.72;5052206;28;20068;-61
2021/12/08 12:02:28;;;;;;;25.08;10.55;;;;;;;-6.66;93.77;100029.69;5034173;28;20160;-63
2021/12/08 12:04:55;;;;;;;28.13;9.73;;;;;;;-6.79;94.85;100000.22;5052002;28;20044;-63
2021/12/08 12:07:20;;;;;;;25.95;9.73;;;;;;;-6.51;93.82;100031.13;5042559;28;20114;-63
2021/12/08 12:09:47;;;;;;;24.95;9.68;;;;;;;-6.67;94.08;100023.59;5054160;28;20049;-63
2021/12/08 12:12:13;;;;;;;32.35;10.65;;;;;;;-6.57;93.91;100037.41;5054041;28;20113;-62
2021/12/08 12:14:41;;;;;;;25.42;9.80;;;;;;;-6.65;94.19;100048.09;5054259;28;20044;-63
2021/12/08 12:17:07;;;;;;;26.92;10.45;;;;;;;-6.59;94.50;100040.03;5045558;28;20155;-64
2021/12/08 12:19:41;;;;;;;36.40;13.25;;;;;;;-6.71;94.67;100045.59;5051936;28;20089;-63
2021/12/08 12:22:30;;;;;;;37.50;11.68;;;;;;;-6.69;94.56;100051.69;5017360;28;20044;-63